sensor_id;sensor_type;location;lat;lon;timestamp;temperature;humidity
16267;DHT22;8241;48.786;9.250;2022-07-18T00:02:15;21.30;91.60
16267;DHT22;8241;48.786;9.250;2022-07-18T00:05:16;21.30;91.60
16267;DHT22;8241;48.786;9.250;2022-07-18T00:07:52;21.30;90.80
16267;DHT22;8241;48.786;9.250;2022-07-18T00:10:19;21.30;91.40
16267;DHT22;8241;48.786;9.250;2022-07-18T00:12:47;21.20;91.70
16267;DHT22;8241;48.786;9.250;2022-07-18T00:15:22;21.10;91.60
16267;DHT22;8241;48.786;9.250;2022-07-18T00:17:56;21.10;91.70
16267;DHT22;8241;48.786;9.250;2022-07-18T00:20:23;21.10;91.30
16267;DHT22;8241;48.786;9.250;2022-07-18T00:22:50;21.20;91.20
16267;DHT22;8241;48.786;9.250;2022-07-18T00:25:17;21.10;90.70
16267;DHT22;8241;48.786;9.250;2022-07-18T00:28:02;21.10;90.50
16267;DHT22;8241;48.786;9.250;2022-07-18T00:30:29;21.10;91.20
16267;DHT22;8241;48.786;9.250;2022-07-18T00:33:21;21.10;91.80
16267;DHT22;8241;48.786;9.250;2022-07-18T00:35:50;20.90;91.90
16267;DHT22;8241;48.786;9.250;2022-07-18T00:38:17;20.80;92.00
16267;DHT22;8241;48.786;9.250;2022-07-18T00:40:44;20.80;92.20
16267;DHT22;8241;48.786;9.250;2022-07-18T00:43:13;20.70;91.90
16267;DHT22;8241;48.786;9.250;2022-07-18T00:45:44;20.50;92.40
16267;DHT22;8241;48.786;9.250;2022-07-18T00:48:11;20.50;92.70
16267;DHT22;8241;48.786;9.250;2022-07-18T00:50:40;20.50;92.80
16267;DHT22;8241;48.786;9.250;2022-07-18T00:53:07;20.50;93.00
16267;DHT22;8241;48.786;9.250;2022-07-18T00:55:37;20.50;92.90
16267;DHT22;8241;48.786;9.250;2022-07-18T00:58:04;20.50;93.00
16267;DHT22;8241;48.786;9.250;2022-07-18T01:00:32;20.40;93.00
16267;DHT22;8241;48.786;9.250;2022-07-18T01:03:17;20.40;92.70
16267;DHT22;8241;48.786;9.250;2022-07-18T01:05:44;20.40;92.50
16267;DHT22;8241;48.786;9.250;2022-07-18T01:08:16;20.40;92.60
16267;DHT22;8241;48.786;9.250;2022-07-18T01:10:42;20.40;92.80
16267;DHT22;8241;48.786;9.250;2022-07-18T01:13:09;20.40;92.90
16267;DHT22;8241;48.786;9.250;2022-07-18T01:15:38;20.30;92.70
16267;DHT22;8241;48.786;9.250;2022-07-18T01:18:05;20.00;92.30
16267;DHT22;8241;48.786;9.250;2022-07-18T01:20:35;20.00;93.20
16267;DHT22;8241;48.786;9.250;2022-07-18T01:23:17;20.00;93.10
16267;DHT22;8241;48.786;9.250;2022-07-18T01:25:54;20.00;93.40
16267;DHT22;8241;48.786;9.250;2022-07-18T01:28:32;20.00;93.40
16267;DHT22;8241;48.786;9.250;2022-07-18T01:30:59;20.00;93.20
16267;DHT22;8241;48.786;9.250;2022-07-18T01:33:31;19.80;93.40
16267;DHT22;8241;48.786;9.250;2022-07-18T01:36:09;19.60;93.90
16267;DHT22;8241;48.786;9.250;2022-07-18T01:38:36;19.30;94.50
16267;DHT22;8241;48.786;9.250;2022-07-18T01:41:03;19.20;94.90
16267;DHT22;8241;48.786;9.250;2022-07-18T01:43:30;19.30;94.90
16267;DHT22;8241;48.786;9.250;2022-07-18T01:49:09;19.30;95.00
16267;DHT22;8241;48.786;9.250;2022-07-18T01:51:44;19.10;94.90
16267;DHT22;8241;48.786;9.250;2022-07-18T01:54:19;19.20;95.00
16267;DHT22;8241;48.786;9.250;2022-07-18T01:56:59;18.90;95.10
16267;DHT22;8241;48.786;9.250;2022-07-18T01:59:29;18.80;95.40
16267;DHT22;8241;48.786;9.250;2022-07-18T02:01:56;18.80;95.70
16267;DHT22;8241;48.786;9.250;2022-07-18T02:04:23;18.80;95.80
16267;DHT22;8241;48.786;9.250;2022-07-18T02:07:12;18.90;95.90
16267;DHT22;8241;48.786;9.250;2022-07-18T02:10:07;18.60;96.20
16267;DHT22;8241;48.786;9.250;2022-07-18T02:12:35;18.60;96.50
16267;DHT22;8241;48.786;9.250;2022-07-18T02:15:03;18.70;96.30
16267;DHT22;8241;48.786;9.250;2022-07-18T02:17:35;18.60;96.20
16267;DHT22;8241;48.786;9.250;2022-07-18T02:20:02;18.50;96.20
16267;DHT22;8241;48.786;9.250;2022-07-18T02:22:31;18.60;95.90
16267;DHT22;8241;48.786;9.250;2022-07-18T02:24:58;18.70;95.80
16267;DHT22;8241;48.786;9.250;2022-07-18T02:27:25;18.70;95.60
16267;DHT22;8241;48.786;9.250;2022-07-18T02:29:52;18.50;95.90
16267;DHT22;8241;48.786;9.250;2022-07-18T02:32:19;18.60;95.80
16267;DHT22;8241;48.786;9.250;2022-07-18T02:35:10;18.60;96.10
16267;DHT22;8241;48.786;9.250;2022-07-18T02:37:57;18.40;96.90
16267;DHT22;8241;48.786;9.250;2022-07-18T02:40:24;18.30;97.00
16267;DHT22;8241;48.786;9.250;2022-07-18T02:42:51;18.10;97.20
16267;DHT22;8241;48.786;9.250;2022-07-18T02:45:18;18.10;96.60
16267;DHT22;8241;48.786;9.250;2022-07-18T02:47:45;18.40;96.70
16267;DHT22;8241;48.786;9.250;2022-07-18T02:50:12;18.60;96.60
16267;DHT22;8241;48.786;9.250;2022-07-18T02:52:39;18.60;96.80
16267;DHT22;8241;48.786;9.250;2022-07-18T02:55:09;18.60;97.00
16267;DHT22;8241;48.786;9.250;2022-07-18T02:57:36;18.40;97.40
16267;DHT22;8241;48.786;9.250;2022-07-18T03:00:10;18.10;97.90
16267;DHT22;8241;48.786;9.250;2022-07-18T03:02:37;18.20;98.10
16267;DHT22;8241;48.786;9.250;2022-07-18T03:05:20;18.30;98.10
16267;DHT22;8241;48.786;9.250;2022-07-18T03:08:13;18.10;98.10
16267;DHT22;8241;48.786;9.250;2022-07-18T03:10:42;18.30;97.90
16267;DHT22;8241;48.786;9.250;2022-07-18T03:13:11;18.30;98.00
16267;DHT22;8241;48.786;9.250;2022-07-18T03:15:38;18.30;98.00
16267;DHT22;8241;48.786;9.250;2022-07-18T03:18:05;18.20;98.30
16267;DHT22;8241;48.786;9.250;2022-07-18T03:21:03;18.20;98.60
16267;DHT22;8241;48.786;9.250;2022-07-18T03:23:30;18.10;98.70
16267;DHT22;8241;48.786;9.250;2022-07-18T03:25:58;17.90;99.10
16267;DHT22;8241;48.786;9.250;2022-07-18T03:28:29;18.10;99.20
16267;DHT22;8241;48.786;9.250;2022-07-18T03:31:15;18.00;99.10
16267;DHT22;8241;48.786;9.250;2022-07-18T03:33:41;17.80;99.30
16267;DHT22;8241;48.786;9.250;2022-07-18T03:36:08;17.90;99.40
16267;DHT22;8241;48.786;9.250;2022-07-18T03:38:35;17.80;99.20
16267;DHT22;8241;48.786;9.250;2022-07-18T03:41:08;18.00;99.60
16267;DHT22;8241;48.786;9.250;2022-07-18T03:43:35;18.00;99.50
16267;DHT22;8241;48.786;9.250;2022-07-18T03:46:03;18.00;99.70
16267;DHT22;8241;48.786;9.250;2022-07-18T03:48:29;17.90;99.90
16267;DHT22;8241;48.786;9.250;2022-07-18T03:50:56;17.90;99.90
16267;DHT22;8241;48.786;9.250;2022-07-18T03:53:29;17.90;99.90
16267;DHT22;8241;48.786;9.250;2022-07-18T03:56:07;17.90;99.90
16267;DHT22;8241;48.786;9.250;2022-07-18T03:58:51;18.00;99.90
16267;DHT22;8241;48.786;9.250;2022-07-18T04:01:18;18.00;99.90
16267;DHT22;8241;48.786;9.250;2022-07-18T04:04:00;17.70;99.90
16267;DHT22;8241;48.786;9.250;2022-07-18T04:06:27;17.80;99.90
16267;DHT22;8241;48.786;9.250;2022-07-18T04:09:02;17.80;99.90
16267;DHT22;8241;48.786;9.250;2022-07-18T04:11:31;17.70;99.90
16267;DHT22;8241;48.786;9.250;2022-07-18T04:13:59;17.80;99.90
16267;DHT22;8241;48.786;9.250;2022-07-18T04:16:40;17.70;99.90
16267;DHT22;8241;48.786;9.250;2022-07-18T04:19:13;17.50;99.90
16267;DHT22;8241;48.786;9.250;2022-07-18T04:22:01;17.50;99.90
16267;DHT22;8241;48.786;9.250;2022-07-18T04:24:29;17.30;99.90
16267;DHT22;8241;48.786;9.250;2022-07-18T04:26:58;17.30;99.90
16267;DHT22;8241;48.786;9.250;2022-07-18T04:29:33;17.10;99.90
16267;DHT22;8241;48.786;9.250;2022-07-18T04:32:04;17.10;99.90
16267;DHT22;8241;48.786;9.250;2022-07-18T04:34:38;17.10;99.90
16267;DHT22;8241;48.786;9.250;2022-07-18T04:37:05;17.20;99.90
16267;DHT22;8241;48.786;9.250;2022-07-18T04:39:31;17.30;99.90
16267;DHT22;8241;48.786;9.250;2022-07-18T04:42:29;17.20;99.90
16267;DHT22;8241;48.786;9.250;2022-07-18T04:45:06;17.10;99.90
16267;DHT22;8241;48.786;9.250;2022-07-18T04:47:33;17.10;99.90
16267;DHT22;8241;48.786;9.250;2022-07-18T04:50:00;17.00;99.90
16267;DHT22;8241;48.786;9.250;2022-07-18T04:52:35;17.20;99.90
16267;DHT22;8241;48.786;9.250;2022-07-18T04:55:02;17.20;99.90
16267;DHT22;8241;48.786;9.250;2022-07-18T04:57:31;17.30;99.90
16267;DHT22;8241;48.786;9.250;2022-07-18T05:00:00;17.40;99.90
16267;DHT22;8241;48.786;9.250;2022-07-18T05:02:27;17.40;99.90
16267;DHT22;8241;48.786;9.250;2022-07-18T05:05:04;17.40;99.90
16267;DHT22;8241;48.786;9.250;2022-07-18T05:07:40;17.40;99.90
16267;DHT22;8241;48.786;9.250;2022-07-18T05:10:10;17.50;99.90
16267;DHT22;8241;48.786;9.250;2022-07-18T05:12:39;17.70;99.90
16267;DHT22;8241;48.786;9.250;2022-07-18T05:15:08;17.80;99.90
16267;DHT22;8241;48.786;9.250;2022-07-18T05:17:37;17.80;99.90
16267;DHT22;8241;48.786;9.250;2022-07-18T05:20:05;17.80;99.90
16267;DHT22;8241;48.786;9.250;2022-07-18T05:22:35;17.80;99.90
16267;DHT22;8241;48.786;9.250;2022-07-18T05:25:08;17.80;99.90
16267;DHT22;8241;48.786;9.250;2022-07-18T05:27:38;17.90;99.90
16267;DHT22;8241;48.786;9.250;2022-07-18T05:30:13;17.90;99.90
16267;DHT22;8241;48.786;9.250;2022-07-18T05:32:43;17.80;99.90
16267;DHT22;8241;48.786;9.250;2022-07-18T05:38:15;18.00;99.90
16267;DHT22;8241;48.786;9.250;2022-07-18T05:40:49;18.10;99.90
16267;DHT22;8241;48.786;9.250;2022-07-18T05:43:17;18.10;99.90
16267;DHT22;8241;48.786;9.250;2022-07-18T05:45:44;18.20;99.90
16267;DHT22;8241;48.786;9.250;2022-07-18T05:48:12;18.20;99.90
16267;DHT22;8241;48.786;9.250;2022-07-18T05:50:45;18.20;99.90
16267;DHT22;8241;48.786;9.250;2022-07-18T05:53:13;18.30;99.90
16267;DHT22;8241;48.786;9.250;2022-07-18T05:55:40;18.40;99.90
16267;DHT22;8241;48.786;9.250;2022-07-18T05:58:09;18.50;99.90
16267;DHT22;8241;48.786;9.250;2022-07-18T06:00:37;18.50;99.90
16267;DHT22;8241;48.786;9.250;2022-07-18T06:03:04;18.60;99.90
16267;DHT22;8241;48.786;9.250;2022-07-18T06:05:31;18.70;99.90
16267;DHT22;8241;48.786;9.250;2022-07-18T06:07:59;18.90;99.90
16267;DHT22;8241;48.786;9.250;2022-07-18T06:10:26;19.10;99.90
16267;DHT22;8241;48.786;9.250;2022-07-18T06:12:54;19.20;99.90
16267;DHT22;8241;48.786;9.250;2022-07-18T06:15:22;19.10;99.60
16267;DHT22;8241;48.786;9.250;2022-07-18T06:18:21;19.30;99.60
16267;DHT22;8241;48.786;9.250;2022-07-18T06:20:48;19.60;98.60
16267;DHT22;8241;48.786;9.250;2022-07-18T06:23:15;19.60;98.70
16267;DHT22;8241;48.786;9.250;2022-07-18T06:25:42;19.80;98.50
16267;DHT22;8241;48.786;9.250;2022-07-18T06:28:09;20.00;98.00
16267;DHT22;8241;48.786;9.250;2022-07-18T06:30:36;20.20;97.80
16267;DHT22;8241;48.786;9.250;2022-07-18T06:33:03;20.20;97.10
16267;DHT22;8241;48.786;9.250;2022-07-18T06:35:32;20.30;97.50
16267;DHT22;8241;48.786;9.250;2022-07-18T06:38:02;20.50;97.10
16267;DHT22;8241;48.786;9.250;2022-07-18T06:40:29;20.70;97.10
16267;DHT22;8241;48.786;9.250;2022-07-18T06:42:58;21.10;96.30
16267;DHT22;8241;48.786;9.250;2022-07-18T06:45:26;21.20;96.00
16267;DHT22;8241;48.786;9.250;2022-07-18T06:47:53;21.50;95.60
16267;DHT22;8241;48.786;9.250;2022-07-18T06:50:20;21.60;95.40
16267;DHT22;8241;48.786;9.250;2022-07-18T06:52:48;21.60;95.30
16267;DHT22;8241;48.786;9.250;2022-07-18T06:55:15;21.90;94.90
16267;DHT22;8241;48.786;9.250;2022-07-18T06:57:43;22.00;94.50
16267;DHT22;8241;48.786;9.250;2022-07-18T07:00:12;22.30;94.40
16267;DHT22;8241;48.786;9.250;2022-07-18T07:02:40;22.60;93.60
16267;DHT22;8241;48.786;9.250;2022-07-18T07:05:08;22.90;93.40
16267;DHT22;8241;48.786;9.250;2022-07-18T07:07:35;23.40;93.10
16267;DHT22;8241;48.786;9.250;2022-07-18T07:10:04;23.60;92.80
16267;DHT22;8241;48.786;9.250;2022-07-18T07:12:38;23.80;92.80
16267;DHT22;8241;48.786;9.250;2022-07-18T07:15:07;24.20;92.20
16267;DHT22;8241;48.786;9.250;2022-07-18T07:17:34;24.40;92.00
16267;DHT22;8241;48.786;9.250;2022-07-18T07:20:02;24.50;91.70
16267;DHT22;8241;48.786;9.250;2022-07-18T07:22:29;24.80;91.40
16267;DHT22;8241;48.786;9.250;2022-07-18T07:24:56;25.40;91.00
16267;DHT22;8241;48.786;9.250;2022-07-18T07:27:24;25.50;90.70
16267;DHT22;8241;48.786;9.250;2022-07-18T07:29:51;25.90;90.80
16267;DHT22;8241;48.786;9.250;2022-07-18T07:32:18;26.30;90.10
16267;DHT22;8241;48.786;9.250;2022-07-18T07:34:45;26.40;89.90
16267;DHT22;8241;48.786;9.250;2022-07-18T07:37:12;27.00;88.20
16267;DHT22;8241;48.786;9.250;2022-07-18T07:39:39;27.40;87.30
16267;DHT22;8241;48.786;9.250;2022-07-18T07:42:05;27.50;87.40
16267;DHT22;8241;48.786;9.250;2022-07-18T07:44:34;27.80;86.60
16267;DHT22;8241;48.786;9.250;2022-07-18T07:47:00;28.10;86.60
16267;DHT22;8241;48.786;9.250;2022-07-18T07:49:28;28.40;85.50
16267;DHT22;8241;48.786;9.250;2022-07-18T07:51:59;28.20;85.60
16267;DHT22;8241;48.786;9.250;2022-07-18T07:54:26;28.40;83.90
16267;DHT22;8241;48.786;9.250;2022-07-18T07:56:53;28.60;83.70
16267;DHT22;8241;48.786;9.250;2022-07-18T07:59:20;29.20;83.00
16267;DHT22;8241;48.786;9.250;2022-07-18T08:01:48;29.60;80.60
16267;DHT22;8241;48.786;9.250;2022-07-18T08:04:18;29.50;82.00
16267;DHT22;8241;48.786;9.250;2022-07-18T08:06:45;29.30;79.00
16267;DHT22;8241;48.786;9.250;2022-07-18T08:09:12;29.10;81.20
16267;DHT22;8241;48.786;9.250;2022-07-18T08:11:39;29.60;75.70
16267;DHT22;8241;48.786;9.250;2022-07-18T08:14:05;29.20;75.80
16267;DHT22;8241;48.786;9.250;2022-07-18T08:16:32;29.10;77.40
16267;DHT22;8241;48.786;9.250;2022-07-18T08:19:01;28.90;78.00
16267;DHT22;8241;48.786;9.250;2022-07-18T08:21:28;28.90;80.10
16267;DHT22;8241;48.786;9.250;2022-07-18T08:23:55;28.80;81.20
16267;DHT22;8241;48.786;9.250;2022-07-18T08:26:22;28.70;80.30
16267;DHT22;8241;48.786;9.250;2022-07-18T08:28:50;28.10;81.30
16267;DHT22;8241;48.786;9.250;2022-07-18T08:31:17;27.80;81.40
16267;DHT22;8241;48.786;9.250;2022-07-18T08:33:45;28.00;77.90
16267;DHT22;8241;48.786;9.250;2022-07-18T08:36:14;27.80;81.20
16267;DHT22;8241;48.786;9.250;2022-07-18T08:38:41;28.10;79.40
16267;DHT22;8241;48.786;9.250;2022-07-18T08:41:08;28.40;78.20
16267;DHT22;8241;48.786;9.250;2022-07-18T08:43:36;28.50;78.50
16267;DHT22;8241;48.786;9.250;2022-07-18T08:46:04;29.00;76.60
16267;DHT22;8241;48.786;9.250;2022-07-18T08:48:32;28.90;75.80
16267;DHT22;8241;48.786;9.250;2022-07-18T08:51:00;29.50;76.00
16267;DHT22;8241;48.786;9.250;2022-07-18T08:53:28;30.00;75.20
16267;DHT22;8241;48.786;9.250;2022-07-18T08:55:55;31.00;75.10
16267;DHT22;8241;48.786;9.250;2022-07-18T08:58:22;31.70;73.00
16267;DHT22;8241;48.786;9.250;2022-07-18T09:00:49;31.50;72.10
16267;DHT22;8241;48.786;9.250;2022-07-18T09:03:16;30.60;74.80
16267;DHT22;8241;48.786;9.250;2022-07-18T09:05:43;31.00;75.20
16267;DHT22;8241;48.786;9.250;2022-07-18T09:08:11;31.60;75.60
16267;DHT22;8241;48.786;9.250;2022-07-18T09:10:49;32.00;73.40
16267;DHT22;8241;48.786;9.250;2022-07-18T09:13:17;32.40;72.60
16267;DHT22;8241;48.786;9.250;2022-07-18T09:15:58;32.30;73.00
16267;DHT22;8241;48.786;9.250;2022-07-18T09:18:28;32.00;72.70
16267;DHT22;8241;48.786;9.250;2022-07-18T09:21:00;31.80;72.20
16267;DHT22;8241;48.786;9.250;2022-07-18T09:23:29;31.20;73.60
16267;DHT22;8241;48.786;9.250;2022-07-18T09:25:58;30.80;74.40
16267;DHT22;8241;48.786;9.250;2022-07-18T09:28:26;30.20;75.80
16267;DHT22;8241;48.786;9.250;2022-07-18T09:30:53;30.00;77.40
16267;DHT22;8241;48.786;9.250;2022-07-18T09:33:20;29.20;76.80
16267;DHT22;8241;48.786;9.250;2022-07-18T09:35:49;29.10;77.50
16267;DHT22;8241;48.786;9.250;2022-07-18T09:38:17;29.10;75.50
16267;DHT22;8241;48.786;9.250;2022-07-18T09:40:48;29.60;74.80
16267;DHT22;8241;48.786;9.250;2022-07-18T09:43:19;29.60;74.60
16267;DHT22;8241;48.786;9.250;2022-07-18T09:45:48;29.30;75.30
16267;DHT22;8241;48.786;9.250;2022-07-18T09:48:16;29.10;73.10
16267;DHT22;8241;48.786;9.250;2022-07-18T09:50:50;28.30;75.30
16267;DHT22;8241;48.786;9.250;2022-07-18T09:53:19;28.40;76.30
16267;DHT22;8241;48.786;9.250;2022-07-18T09:55:51;28.50;76.60
16267;DHT22;8241;48.786;9.250;2022-07-18T09:58:21;29.10;71.20
16267;DHT22;8241;48.786;9.250;2022-07-18T10:00:49;29.00;72.20
16267;DHT22;8241;48.786;9.250;2022-07-18T10:03:17;28.60;72.70
16267;DHT22;8241;48.786;9.250;2022-07-18T10:05:45;29.20;71.20
16267;DHT22;8241;48.786;9.250;2022-07-18T10:08:15;29.30;70.40
16267;DHT22;8241;48.786;9.250;2022-07-18T10:10:44;28.80;70.10
16267;DHT22;8241;48.786;9.250;2022-07-18T10:13:12;29.00;70.70
16267;DHT22;8241;48.786;9.250;2022-07-18T10:15:42;29.20;71.90
16267;DHT22;8241;48.786;9.250;2022-07-18T10:18:12;28.70;72.10
16267;DHT22;8241;48.786;9.250;2022-07-18T10:20:42;28.50;71.20
16267;DHT22;8241;48.786;9.250;2022-07-18T10:23:18;28.70;72.30
16267;DHT22;8241;48.786;9.250;2022-07-18T10:26:17;29.20;71.10
16267;DHT22;8241;48.786;9.250;2022-07-18T10:29:09;29.40;70.40
16267;DHT22;8241;48.786;9.250;2022-07-18T10:31:39;29.00;70.20
16267;DHT22;8241;48.786;9.250;2022-07-18T10:34:12;29.30;70.50
16267;DHT22;8241;48.786;9.250;2022-07-18T10:36:42;29.10;71.20
16267;DHT22;8241;48.786;9.250;2022-07-18T10:39:33;29.10;69.90
16267;DHT22;8241;48.786;9.250;2022-07-18T10:42:17;29.50;70.70
16267;DHT22;8241;48.786;9.250;2022-07-18T10:44:45;29.50;72.50
16267;DHT22;8241;48.786;9.250;2022-07-18T10:47:14;29.70;72.70
16267;DHT22;8241;48.786;9.250;2022-07-18T10:50:03;30.00;70.60
16267;DHT22;8241;48.786;9.250;2022-07-18T10:52:58;30.10;68.80
16267;DHT22;8241;48.786;9.250;2022-07-18T10:55:29;30.30;68.40
16267;DHT22;8241;48.786;9.250;2022-07-18T10:58:15;30.60;66.50
16267;DHT22;8241;48.786;9.250;2022-07-18T11:00:48;30.60;67.00
16267;DHT22;8241;48.786;9.250;2022-07-18T11:03:28;30.40;68.00
16267;DHT22;8241;48.786;9.250;2022-07-18T11:05:56;30.00;68.40
16267;DHT22;8241;48.786;9.250;2022-07-18T11:08:24;30.20;68.00
16267;DHT22;8241;48.786;9.250;2022-07-18T11:11:04;30.40;68.00
16267;DHT22;8241;48.786;9.250;2022-07-18T11:13:33;30.30;68.20
16267;DHT22;8241;48.786;9.250;2022-07-18T11:16:03;30.30;67.80
16267;DHT22;8241;48.786;9.250;2022-07-18T11:18:36;30.10;68.20
16267;DHT22;8241;48.786;9.250;2022-07-18T11:21:21;30.20;67.90
16267;DHT22;8241;48.786;9.250;2022-07-18T11:23:51;30.20;67.20
16267;DHT22;8241;48.786;9.250;2022-07-18T11:26:23;30.10;68.00
16267;DHT22;8241;48.786;9.250;2022-07-18T11:28:57;30.50;65.90
16267;DHT22;8241;48.786;9.250;2022-07-18T11:31:25;30.70;65.30
16267;DHT22;8241;48.786;9.250;2022-07-18T11:33:54;30.90;65.80
16267;DHT22;8241;48.786;9.250;2022-07-18T11:36:23;31.00;66.50
16267;DHT22;8241;48.786;9.250;2022-07-18T11:38:56;30.50;64.30
16267;DHT22;8241;48.786;9.250;2022-07-18T11:41:23;30.40;65.00
16267;DHT22;8241;48.786;9.250;2022-07-18T11:43:53;30.40;67.70
16267;DHT22;8241;48.786;9.250;2022-07-18T11:46:22;30.60;65.60
16267;DHT22;8241;48.786;9.250;2022-07-18T11:48:59;30.70;64.80
16267;DHT22;8241;48.786;9.250;2022-07-18T11:51:34;30.70;66.50
16267;DHT22;8241;48.786;9.250;2022-07-18T11:54:03;30.90;67.70
16267;DHT22;8241;48.786;9.250;2022-07-18T11:56:30;31.40;66.90
16267;DHT22;8241;48.786;9.250;2022-07-18T11:58:57;31.80;64.60
16267;DHT22;8241;48.786;9.250;2022-07-18T12:01:30;32.10;63.00
16267;DHT22;8241;48.786;9.250;2022-07-18T12:03:59;32.30;62.00
16267;DHT22;8241;48.786;9.250;2022-07-18T12:06:29;32.30;61.20
16267;DHT22;8241;48.786;9.250;2022-07-18T12:08:57;32.10;61.40
16267;DHT22;8241;48.786;9.250;2022-07-18T12:11:27;31.90;62.60
16267;DHT22;8241;48.786;9.250;2022-07-18T12:13:55;32.20;62.00
16267;DHT22;8241;48.786;9.250;2022-07-18T12:16:34;32.30;61.10
16267;DHT22;8241;48.786;9.250;2022-07-18T12:19:05;32.30;61.30
16267;DHT22;8241;48.786;9.250;2022-07-18T12:21:43;32.40;60.50
16267;DHT22;8241;48.786;9.250;2022-07-18T12:24:34;32.70;61.10
16267;DHT22;8241;48.786;9.250;2022-07-18T12:27:15;33.30;60.30
16267;DHT22;8241;48.786;9.250;2022-07-18T12:30:10;33.60;60.30
16267;DHT22;8241;48.786;9.250;2022-07-18T12:32:49;34.00;59.70
16267;DHT22;8241;48.786;9.250;2022-07-18T12:35:20;34.50;59.50
16267;DHT22;8241;48.786;9.250;2022-07-18T12:37:54;34.90;60.10
16267;DHT22;8241;48.786;9.250;2022-07-18T12:40:22;35.30;59.10
16267;DHT22;8241;48.786;9.250;2022-07-18T12:43:02;35.90;58.80
16267;DHT22;8241;48.786;9.250;2022-07-18T12:45:29;37.10;58.00
16267;DHT22;8241;48.786;9.250;2022-07-18T12:47:56;38.60;58.80
16267;DHT22;8241;48.786;9.250;2022-07-18T12:50:25;39.50;57.20
16267;DHT22;8241;48.786;9.250;2022-07-18T12:52:57;40.20;54.20
16267;DHT22;8241;48.786;9.250;2022-07-18T12:55:37;40.90;54.30
16267;DHT22;8241;48.786;9.250;2022-07-18T12:58:05;41.50;54.40
16267;DHT22;8241;48.786;9.250;2022-07-18T13:00:32;41.90;53.40
16267;DHT22;8241;48.786;9.250;2022-07-18T13:02:59;42.70;53.20
16267;DHT22;8241;48.786;9.250;2022-07-18T13:05:29;43.10;51.40
16267;DHT22;8241;48.786;9.250;2022-07-18T13:08:20;43.40;51.30
16267;DHT22;8241;48.786;9.250;2022-07-18T13:10:48;43.80;51.20
16267;DHT22;8241;48.786;9.250;2022-07-18T13:13:29;44.40;51.20
16267;DHT22;8241;48.786;9.250;2022-07-18T13:15:56;42.20;50.70
16267;DHT22;8241;48.786;9.250;2022-07-18T13:18:23;40.90;51.90
16267;DHT22;8241;48.786;9.250;2022-07-18T13:20:54;40.30;52.20
16267;DHT22;8241;48.786;9.250;2022-07-18T13:23:21;40.00;52.00
16267;DHT22;8241;48.786;9.250;2022-07-18T13:25:47;41.00;52.70
16267;DHT22;8241;48.786;9.250;2022-07-18T13:28:14;40.60;52.30
16267;DHT22;8241;48.786;9.250;2022-07-18T13:30:41;41.10;50.80
16267;DHT22;8241;48.786;9.250;2022-07-18T13:33:08;40.70;50.80
16267;DHT22;8241;48.786;9.250;2022-07-18T13:35:35;41.10;51.00
16267;DHT22;8241;48.786;9.250;2022-07-18T13:38:03;41.40;50.80
16267;DHT22;8241;48.786;9.250;2022-07-18T13:40:33;41.60;50.50
16267;DHT22;8241;48.786;9.250;2022-07-18T13:43:00;41.10;52.30
16267;DHT22;8241;48.786;9.250;2022-07-18T13:45:27;40.50;52.10
16267;DHT22;8241;48.786;9.250;2022-07-18T13:47:54;40.30;51.60
16267;DHT22;8241;48.786;9.250;2022-07-18T13:50:21;41.60;50.90
16267;DHT22;8241;48.786;9.250;2022-07-18T13:52:48;41.20;50.10
16267;DHT22;8241;48.786;9.250;2022-07-18T13:59:09;40.70;50.90
16267;DHT22;8241;48.786;9.250;2022-07-18T14:01:36;41.40;51.60
16267;DHT22;8241;48.786;9.250;2022-07-18T14:04:03;41.60;50.00
16267;DHT22;8241;48.786;9.250;2022-07-18T14:06:31;42.00;51.20
16267;DHT22;8241;48.786;9.250;2022-07-18T14:08:58;42.20;49.50
16267;DHT22;8241;48.786;9.250;2022-07-18T14:11:27;43.10;50.20
16267;DHT22;8241;48.786;9.250;2022-07-18T14:14:09;43.90;50.00
16267;DHT22;8241;48.786;9.250;2022-07-18T14:16:38;43.20;49.80
16267;DHT22;8241;48.786;9.250;2022-07-18T14:19:22;43.70;48.90
16267;DHT22;8241;48.786;9.250;2022-07-18T14:21:51;43.00;48.90
16267;DHT22;8241;48.786;9.250;2022-07-18T14:24:18;40.70;52.60
16267;DHT22;8241;48.786;9.250;2022-07-18T14:26:47;42.10;51.60
16267;DHT22;8241;48.786;9.250;2022-07-18T14:29:15;43.60;50.80
16267;DHT22;8241;48.786;9.250;2022-07-18T14:31:42;44.50;49.00
16267;DHT22;8241;48.786;9.250;2022-07-18T14:34:09;44.20;50.10
16267;DHT22;8241;48.786;9.250;2022-07-18T14:36:36;43.10;48.70
16267;DHT22;8241;48.786;9.250;2022-07-18T14:39:03;43.10;50.10
16267;DHT22;8241;48.786;9.250;2022-07-18T14:41:34;43.70;48.90
16267;DHT22;8241;48.786;9.250;2022-07-18T14:44:01;42.20;48.70
16267;DHT22;8241;48.786;9.250;2022-07-18T14:46:29;42.10;49.10
16267;DHT22;8241;48.786;9.250;2022-07-18T14:48:58;42.00;49.50
16267;DHT22;8241;48.786;9.250;2022-07-18T14:51:24;41.60;49.40
16267;DHT22;8241;48.786;9.250;2022-07-18T14:53:51;41.30;50.70
16267;DHT22;8241;48.786;9.250;2022-07-18T14:56:18;40.90;50.60
16267;DHT22;8241;48.786;9.250;2022-07-18T14:58:45;40.10;52.10
16267;DHT22;8241;48.786;9.250;2022-07-18T15:01:15;39.30;51.70
16267;DHT22;8241;48.786;9.250;2022-07-18T15:03:46;38.70;52.80
16267;DHT22;8241;48.786;9.250;2022-07-18T15:06:13;38.60;52.90
16267;DHT22;8241;48.786;9.250;2022-07-18T15:08:40;38.30;53.50
16267;DHT22;8241;48.786;9.250;2022-07-18T15:11:06;38.40;53.70
16267;DHT22;8241;48.786;9.250;2022-07-18T15:13:33;38.20;53.60
16267;DHT22;8241;48.786;9.250;2022-07-18T15:16:00;38.20;53.30
16267;DHT22;8241;48.786;9.250;2022-07-18T15:18:27;38.20;53.30
16267;DHT22;8241;48.786;9.250;2022-07-18T15:20:56;38.20;52.90
16267;DHT22;8241;48.786;9.250;2022-07-18T15:23:22;38.90;54.10
16267;DHT22;8241;48.786;9.250;2022-07-18T15:25:49;39.80;53.30
16267;DHT22;8241;48.786;9.250;2022-07-18T15:28:16;40.40;53.00
16267;DHT22;8241;48.786;9.250;2022-07-18T15:30:43;41.10;50.70
16267;DHT22;8241;48.786;9.250;2022-07-18T15:33:13;41.60;50.00
16267;DHT22;8241;48.786;9.250;2022-07-18T15:35:40;41.60;50.20
16267;DHT22;8241;48.786;9.250;2022-07-18T15:38:08;41.90;50.70
16267;DHT22;8241;48.786;9.250;2022-07-18T15:40:37;42.70;49.30
16267;DHT22;8241;48.786;9.250;2022-07-18T15:43:04;43.10;48.40
16267;DHT22;8241;48.786;9.250;2022-07-18T15:45:31;43.10;48.90
16267;DHT22;8241;48.786;9.250;2022-07-18T15:47:58;43.30;48.40
16267;DHT22;8241;48.786;9.250;2022-07-18T15:50:26;43.50;48.10
16267;DHT22;8241;48.786;9.250;2022-07-18T15:52:53;43.00;48.20
16267;DHT22;8241;48.786;9.250;2022-07-18T15:55:21;42.20;48.60
16267;DHT22;8241;48.786;9.250;2022-07-18T15:57:48;40.60;50.40
16267;DHT22;8241;48.786;9.250;2022-07-18T16:00:16;39.80;50.10
16267;DHT22;8241;48.786;9.250;2022-07-18T16:02:46;38.20;52.80
16267;DHT22;8241;48.786;9.250;2022-07-18T16:05:18;37.80;52.80
16267;DHT22;8241;48.786;9.250;2022-07-18T16:07:45;37.40;54.30
16267;DHT22;8241;48.786;9.250;2022-07-18T16:10:13;37.10;53.80
16267;DHT22;8241;48.786;9.250;2022-07-18T16:12:41;36.80;55.10
16267;DHT22;8241;48.786;9.250;2022-07-18T16:15:09;36.60;54.20
16267;DHT22;8241;48.786;9.250;2022-07-18T16:17:36;36.50;54.60